sensor_id;sensor_type;location;lat;lon;timestamp;pressure;altitude;pressure_sealevel;temperature
72054;BMP280;59918;51.280;7.950;2022-09-09T00:00:22;97352.78;;;15.42
72054;BMP280;59918;51.280;7.950;2022-09-09T00:02:55;97353.56;;;15.42
72054;BMP280;59918;51.280;7.950;2022-09-09T00:05:33;97353.31;;;15.39
72054;BMP280;59918;51.280;7.950;2022-09-09T00:08:02;97353.53;;;15.37
72054;BMP280;59918;51.280;7.950;2022-09-09T00:10:40;97350.16;;;15.37
72054;BMP280;59918;51.280;7.950;2022-09-09T00:21:33;97346.06;;;15.41
72054;BMP280;59918;51.280;7.950;2022-09-09T00:24:07;97355.69;;;15.45
72054;BMP280;59918;51.280;7.950;2022-09-09T00:26:45;97353.94;;;15.51
72054;BMP280;59918;51.280;7.950;2022-09-09T00:31:37;97343.75;;;15.44
72054;BMP280;59918;51.280;7.950;2022-09-09T00:34:12;97349.66;;;15.40
72054;BMP280;59918;51.280;7.950;2022-09-09T00:36:38;97351.47;;;15.39
72054;BMP280;59918;51.280;7.950;2022-09-09T00:39:04;97344.47;;;15.40
72054;BMP280;59918;51.280;7.950;2022-09-09T00:41:58;97349.38;;;15.36
72054;BMP280;59918;51.280;7.950;2022-09-09T00:44:31;97351.69;;;15.33
72054;BMP280;59918;51.280;7.950;2022-09-09T00:55:03;97363.84;;;15.32
72054;BMP280;59918;51.280;7.950;2022-09-09T00:57:36;97361.25;;;15.32
72054;BMP280;59918;51.280;7.950;2022-09-09T01:00:21;97361.50;;;15.31
72054;BMP280;59918;51.280;7.950;2022-09-09T01:05:33;97348.00;;;15.29
72054;BMP280;59918;51.280;7.950;2022-09-09T01:08:15;97353.97;;;15.30
72054;BMP280;59918;51.280;7.950;2022-09-09T01:10:50;97346.75;;;15.32
72054;BMP280;59918;51.280;7.950;2022-09-09T01:13:24;97343.16;;;15.37
72054;BMP280;59918;51.280;7.950;2022-09-09T01:15:50;97342.94;;;15.39
72054;BMP280;59918;51.280;7.950;2022-09-09T01:18:21;97354.09;;;15.44
72054;BMP280;59918;51.280;7.950;2022-09-09T01:26:21;97339.53;;;15.38
72054;BMP280;59918;51.280;7.950;2022-09-09T01:28:50;97337.44;;;15.35
72054;BMP280;59918;51.280;7.950;2022-09-09T01:31:34;97340.47;;;15.28
72054;BMP280;59918;51.280;7.950;2022-09-09T01:34:01;97342.22;;;15.22
72054;BMP280;59918;51.280;7.950;2022-09-09T01:39:04;97337.06;;;15.22
72054;BMP280;59918;51.280;7.950;2022-09-09T01:41:32;97332.38;;;15.19
72054;BMP280;59918;51.280;7.950;2022-09-09T01:43:57;97331.28;;;15.15
72054;BMP280;59918;51.280;7.950;2022-09-09T01:46:23;97326.59;;;15.12
72054;BMP280;59918;51.280;7.950;2022-09-09T01:48:50;97333.25;;;15.08
72054;BMP280;59918;51.280;7.950;2022-09-09T01:51:16;97330.88;;;15.07
72054;BMP280;59918;51.280;7.950;2022-09-09T01:53:41;97335.53;;;15.05
72054;BMP280;59918;51.280;7.950;2022-09-09T01:56:14;97346.41;;;15.07
72054;BMP280;59918;51.280;7.950;2022-09-09T01:59:06;97340.69;;;15.05
72054;BMP280;59918;51.280;7.950;2022-09-09T02:06:47;97338.66;;;15.07
72054;BMP280;59918;51.280;7.950;2022-09-09T02:09:15;97346.03;;;15.15
72054;BMP280;59918;51.280;7.950;2022-09-09T02:11:47;97341.16;;;15.18
72054;BMP280;59918;51.280;7.950;2022-09-09T02:14:16;97350.97;;;15.16
72054;BMP280;59918;51.280;7.950;2022-09-09T02:16:56;97343.09;;;15.11
72054;BMP280;59918;51.280;7.950;2022-09-09T02:19:26;97334.34;;;15.12
72054;BMP280;59918;51.280;7.950;2022-09-09T02:21:55;97344.47;;;15.14
72054;BMP280;59918;51.280;7.950;2022-09-09T02:24:21;97349.66;;;15.14
72054;BMP280;59918;51.280;7.950;2022-09-09T02:26:49;97347.28;;;15.12
72054;BMP280;59918;51.280;7.950;2022-09-09T02:29:26;97360.84;;;15.19
72054;BMP280;59918;51.280;7.950;2022-09-09T02:31:55;97355.41;;;15.21
72054;BMP280;59918;51.280;7.950;2022-09-09T02:34:22;97352.03;;;15.20
72054;BMP280;59918;51.280;7.950;2022-09-09T02:36:49;97346.88;;;15.20
72054;BMP280;59918;51.280;7.950;2022-09-09T02:39:15;97351.03;;;15.21
72054;BMP280;59918;51.280;7.950;2022-09-09T02:41:41;97351.31;;;15.25
72054;BMP280;59918;51.280;7.950;2022-09-09T02:44:11;97359.63;;;15.27
72054;BMP280;59918;51.280;7.950;2022-09-09T02:51:55;97343.81;;;15.23
72054;BMP280;59918;51.280;7.950;2022-09-09T02:54:31;97337.56;;;15.19
72054;BMP280;59918;51.280;7.950;2022-09-09T02:57:12;97347.59;;;15.16
72054;BMP280;59918;51.280;7.950;2022-09-09T02:59:39;97340.50;;;15.11
72054;BMP280;59918;51.280;7.950;2022-09-09T03:02:04;97352.78;;;15.16
72054;BMP280;59918;51.280;7.950;2022-09-09T03:04:30;97353.13;;;15.24
72054;BMP280;59918;51.280;7.950;2022-09-09T03:06:55;97355.50;;;15.31
72054;BMP280;59918;51.280;7.950;2022-09-09T03:09:21;97360.75;;;15.35
72054;BMP280;59918;51.280;7.950;2022-09-09T03:11:46;97354.06;;;15.39
72054;BMP280;59918;51.280;7.950;2022-09-09T03:14:11;97354.09;;;15.44
72054;BMP280;59918;51.280;7.950;2022-09-09T03:16:37;97357.53;;;15.50
72054;BMP280;59918;51.280;7.950;2022-09-09T03:19:02;97355.25;;;15.53
72054;BMP280;59918;51.280;7.950;2022-09-09T03:21:27;97341.75;;;15.51
72054;BMP280;59918;51.280;7.950;2022-09-09T03:23:53;97346.41;;;15.49
72054;BMP280;59918;51.280;7.950;2022-09-09T03:26:18;97347.91;;;15.45
72054;BMP280;59918;51.280;7.950;2022-09-09T03:28:43;97343.75;;;15.44
72054;BMP280;59918;51.280;7.950;2022-09-09T03:31:08;97348.38;;;15.42
72054;BMP280;59918;51.280;7.950;2022-09-09T03:33:33;97351.25;;;15.41
72054;BMP280;59918;51.280;7.950;2022-09-09T03:35:59;97350.72;;;15.39
72054;BMP280;59918;51.280;7.950;2022-09-09T03:38:24;97346.00;;;15.36
72054;BMP280;59918;51.280;7.950;2022-09-09T03:40:54;97350.41;;;15.35
72054;BMP280;59918;51.280;7.950;2022-09-09T03:43:22;97349.88;;;15.33
72054;BMP280;59918;51.280;7.950;2022-09-09T03:45:48;97339.75;;;15.32
72054;BMP280;59918;51.280;7.950;2022-09-09T03:48:14;97339.19;;;15.30
72054;BMP280;59918;51.280;7.950;2022-09-09T03:50:44;97348.00;;;15.29
72054;BMP280;59918;51.280;7.950;2022-09-09T03:53:09;97344.91;;;15.32
72054;BMP280;59918;51.280;7.950;2022-09-09T03:55:35;97340.50;;;15.32
72054;BMP280;59918;51.280;7.950;2022-09-09T03:58:00;97342.34;;;15.32
72054;BMP280;59918;51.280;7.950;2022-09-09T04:00:25;97336.91;;;15.33
72054;BMP280;59918;51.280;7.950;2022-09-09T04:02:50;97331.50;;;15.35
72054;BMP280;59918;51.280;7.950;2022-09-09T04:05:16;97349.09;;;15.33
72054;BMP280;59918;51.280;7.950;2022-09-09T04:07:43;97350.88;;;15.32
72054;BMP280;59918;51.280;7.950;2022-09-09T04:10:08;97342.41;;;15.37
72054;BMP280;59918;51.280;7.950;2022-09-09T04:12:33;97335.41;;;15.37
72054;BMP280;59918;51.280;7.950;2022-09-09T04:14:59;97342.63;;;15.35
72054;BMP280;59918;51.280;7.950;2022-09-09T04:17:24;97343.38;;;15.31
72054;BMP280;59918;51.280;7.950;2022-09-09T04:19:49;97340.47;;;15.28
72054;BMP280;59918;51.280;7.950;2022-09-09T04:22:14;97338.34;;;15.25
72054;BMP280;59918;51.280;7.950;2022-09-09T04:24:39;97333.19;;;15.25
72054;BMP280;59918;51.280;7.950;2022-09-09T04:27:05;97342.75;;;15.24
72054;BMP280;59918;51.280;7.950;2022-09-09T04:29:30;97347.72;;;15.26
72054;BMP280;59918;51.280;7.950;2022-09-09T04:31:55;97340.72;;;15.26
72054;BMP280;59918;51.280;7.950;2022-09-09T04:34:20;97340.69;;;15.21
72054;BMP280;59918;51.280;7.950;2022-09-09T04:36:46;97342.47;;;15.21
72054;BMP280;59918;51.280;7.950;2022-09-09T04:39:13;97347.66;;;15.21
72054;BMP280;59918;51.280;7.950;2022-09-09T04:41:38;97350.72;;;15.18
72054;BMP280;59918;51.280;7.950;2022-09-09T04:44:04;97348.69;;;15.20
72054;BMP280;59918;51.280;7.950;2022-09-09T04:46:31;97345.34;;;15.24
72054;BMP280;59918;51.280;7.950;2022-09-09T04:48:57;97349.25;;;15.27
72054;BMP280;59918;51.280;7.950;2022-09-09T04:51:22;97351.84;;;15.27
72054;BMP280;59918;51.280;7.950;2022-09-09T04:53:50;97352.16;;;15.30
72054;BMP280;59918;51.280;7.950;2022-09-09T04:56:16;97346.25;;;15.34
72054;BMP280;59918;51.280;7.950;2022-09-09T04:58:42;97345.25;;;15.40
72054;BMP280;59918;51.280;7.950;2022-09-09T05:01:16;97351.03;;;15.47
72054;BMP280;59918;51.280;7.950;2022-09-09T05:06:44;97351.38;;;15.56
72054;BMP280;59918;51.280;7.950;2022-09-09T05:09:09;97342.31;;;15.58
72054;BMP280;59918;51.280;7.950;2022-09-09T05:11:35;97346.25;;;15.61
72054;BMP280;59918;51.280;7.950;2022-09-09T05:14:00;97349.63;;;15.61
72054;BMP280;59918;51.280;7.950;2022-09-09T05:16:25;97340.81;;;15.62
72054;BMP280;59918;51.280;7.950;2022-09-09T05:18:50;97343.91;;;15.59
72054;BMP280;59918;51.280;7.950;2022-09-09T05:21:17;97344.69;;;15.60
72054;BMP280;59918;51.280;7.950;2022-09-09T05:23:42;97332.75;;;15.59
72054;BMP280;59918;51.280;7.950;2022-09-09T05:26:14;97340.53;;;15.59
72054;BMP280;59918;51.280;7.950;2022-09-09T05:28:39;97346.72;;;15.58
72054;BMP280;59918;51.280;7.950;2022-09-09T05:31:07;97337.13;;;15.58
72054;BMP280;59918;51.280;7.950;2022-09-09T05:33:32;97335.59;;;15.57
72054;BMP280;59918;51.280;7.950;2022-09-09T05:36:06;97341.06;;;15.61
72054;BMP280;59918;51.280;7.950;2022-09-09T05:38:34;97346.25;;;15.61
72054;BMP280;59918;51.280;7.950;2022-09-09T05:41:00;97342.63;;;15.62
72054;BMP280;59918;51.280;7.950;2022-09-09T05:43:28;97351.72;;;15.64
72054;BMP280;59918;51.280;7.950;2022-09-09T05:46:08;97352.78;;;15.68
72054;BMP280;59918;51.280;7.950;2022-09-09T05:48:35;97356.72;;;15.70
72054;BMP280;59918;51.280;7.950;2022-09-09T05:51:02;97363.25;;;15.78
72054;BMP280;59918;51.280;7.950;2022-09-09T05:53:28;97357.09;;;15.84
72054;BMP280;59918;51.280;7.950;2022-09-09T05:56:08;97361.56;;;15.93
72054;BMP280;59918;51.280;7.950;2022-09-09T05:58:34;97360.88;;;16.03
72054;BMP280;59918;51.280;7.950;2022-09-09T06:01:08;97372.34;;;16.11
72054;BMP280;59918;51.280;7.950;2022-09-09T06:03:35;97376.44;;;16.03
72054;BMP280;59918;51.280;7.950;2022-09-09T06:06:02;97393.50;;;15.99
72054;BMP280;59918;51.280;7.950;2022-09-09T06:08:28;97380.69;;;15.87
72054;BMP280;59918;51.280;7.950;2022-09-09T06:10:53;97377.16;;;15.67
72054;BMP280;59918;51.280;7.950;2022-09-09T06:13:18;97379.53;;;15.47
72054;BMP280;59918;51.280;7.950;2022-09-09T06:15:55;97373.09;;;15.29
72054;BMP280;59918;51.280;7.950;2022-09-09T06:18:20;97392.56;;;15.10
72054;BMP280;59918;51.280;7.950;2022-09-09T06:21:00;97389.72;;;14.90
72054;BMP280;59918;51.280;7.950;2022-09-09T06:23:26;97384.88;;;14.77
72054;BMP280;59918;51.280;7.950;2022-09-09T06:26:09;97385.06;;;14.71
72054;BMP280;59918;51.280;7.950;2022-09-09T06:28:35;97381.38;;;14.67
72054;BMP280;59918;51.280;7.950;2022-09-09T06:31:06;97381.31;;;14.62
72054;BMP280;59918;51.280;7.950;2022-09-09T06:33:33;97387.75;;;14.59
72054;BMP280;59918;51.280;7.950;2022-09-09T06:35:58;97388.53;;;14.60
72054;BMP280;59918;51.280;7.950;2022-09-09T06:38:23;97385.00;;;14.66
72054;BMP280;59918;51.280;7.950;2022-09-09T06:40:53;97383.81;;;14.73
72054;BMP280;59918;51.280;7.950;2022-09-09T06:43:18;97387.72;;;14.76
72054;BMP280;59918;51.280;7.950;2022-09-09T06:45:45;97389.84;;;14.79
72054;BMP280;59918;51.280;7.950;2022-09-09T06:48:17;97395.59;;;14.86
72054;BMP280;59918;51.280;7.950;2022-09-09T06:50:42;97396.75;;;14.95
72054;BMP280;59918;51.280;7.950;2022-09-09T06:53:09;97389.66;;;15.06
72054;BMP280;59918;51.280;7.950;2022-09-09T06:55:35;97403.06;;;15.20
72054;BMP280;59918;51.280;7.950;2022-09-09T06:58:00;97391.78;;;15.31
72054;BMP280;59918;51.280;7.950;2022-09-09T07:00:25;97391.13;;;15.40
72054;BMP280;59918;51.280;7.950;2022-09-09T07:02:50;97395.63;;;15.49
72054;BMP280;59918;51.280;7.950;2022-09-09T07:05:16;97394.53;;;15.67
72054;BMP280;59918;51.280;7.950;2022-09-09T07:07:41;97401.19;;;15.89
72054;BMP280;59918;51.280;7.950;2022-09-09T07:10:06;97402.34;;;16.03
72054;BMP280;59918;51.280;7.950;2022-09-09T07:12:32;97395.81;;;15.95
72054;BMP280;59918;51.280;7.950;2022-09-09T07:14:57;97402.28;;;15.93
72054;BMP280;59918;51.280;7.950;2022-09-09T07:17:22;97399.13;;;15.91
72054;BMP280;59918;51.280;7.950;2022-09-09T07:19:47;97395.56;;;15.97
72054;BMP280;59918;51.280;7.950;2022-09-09T07:22:13;97383.50;;;16.12
72054;BMP280;59918;51.280;7.950;2022-09-09T07:24:38;97383.94;;;16.30
72054;BMP280;59918;51.280;7.950;2022-09-09T07:27:03;97387.34;;;16.36
72054;BMP280;59918;51.280;7.950;2022-09-09T07:29:28;97390.47;;;16.38
72054;BMP280;59918;51.280;7.950;2022-09-09T07:31:54;97396.78;;;16.46
72054;BMP280;59918;51.280;7.950;2022-09-09T07:34:19;97391.66;;;16.56
72054;BMP280;59918;51.280;7.950;2022-09-09T07:36:44;97391.94;;;16.65
72054;BMP280;59918;51.280;7.950;2022-09-09T07:39:12;97386.78;;;16.70
72054;BMP280;59918;51.280;7.950;2022-09-09T07:41:41;97389.91;;;16.72
72054;BMP280;59918;51.280;7.950;2022-09-09T07:44:12;97397.50;;;16.78
72054;BMP280;59918;51.280;7.950;2022-09-09T07:46:38;97396.75;;;16.87
72054;BMP280;59918;51.280;7.950;2022-09-09T07:49:04;97395.75;;;16.98
72054;BMP280;59918;51.280;7.950;2022-09-09T07:51:34;97402.13;;;17.17
72054;BMP280;59918;51.280;7.950;2022-09-09T07:54:01;97397.75;;;17.27
72054;BMP280;59918;51.280;7.950;2022-09-09T07:56:28;97410.25;;;17.40
72054;BMP280;59918;51.280;7.950;2022-09-09T07:58:55;97399.34;;;17.48
72054;BMP280;59918;51.280;7.950;2022-09-09T08:04:04;97407.25;;;17.78
72054;BMP280;59918;51.280;7.950;2022-09-09T08:06:32;97409.91;;;18.07
72054;BMP280;59918;51.280;7.950;2022-09-09T08:08:58;97403.38;;;18.25
72054;BMP280;59918;51.280;7.950;2022-09-09T08:11:27;97414.81;;;18.04
72054;BMP280;59918;51.280;7.950;2022-09-09T08:13:53;97412.16;;;17.79
72054;BMP280;59918;51.280;7.950;2022-09-09T08:16:22;97418.41;;;17.73
72054;BMP280;59918;51.280;7.950;2022-09-09T08:18:48;97411.09;;;17.65
72054;BMP280;59918;51.280;7.950;2022-09-09T08:21:17;97418.09;;;17.60
72054;BMP280;59918;51.280;7.950;2022-09-09T08:23:43;97411.13;;;17.70
72054;BMP280;59918;51.280;7.950;2022-09-09T08:26:15;97415.28;;;17.76
72054;BMP280;59918;51.280;7.950;2022-09-09T08:28:41;97411.66;;;17.87
72054;BMP280;59918;51.280;7.950;2022-09-09T08:31:08;97414.81;;;18.04
72054;BMP280;59918;51.280;7.950;2022-09-09T08:33:34;97403.91;;;18.17
72054;BMP280;59918;51.280;7.950;2022-09-09T08:35:59;97408.84;;;18.18
72054;BMP280;59918;51.280;7.950;2022-09-09T08:38:25;97403.66;;;18.33
72054;BMP280;59918;51.280;7.950;2022-09-09T08:40:52;97404.91;;;18.70
72054;BMP280;59918;51.280;7.950;2022-09-09T08:43:21;97404.06;;;19.04
72054;BMP280;59918;51.280;7.950;2022-09-09T08:45:55;97403.44;;;19.32
72054;BMP280;59918;51.280;7.950;2022-09-09T08:51:04;97399.50;;;19.34
72054;BMP280;59918;51.280;7.950;2022-09-09T08:53:39;97407.19;;;19.06
72054;BMP280;59918;51.280;7.950;2022-09-09T08:56:12;97417.59;;;19.11
72054;BMP280;59918;51.280;7.950;2022-09-09T08:58:48;97410.81;;;19.10
72054;BMP280;59918;51.280;7.950;2022-09-09T09:04:13;97417.19;;;19.42
72054;BMP280;59918;51.280;7.950;2022-09-09T09:07:07;97415.19;;;19.24
72054;BMP280;59918;51.280;7.950;2022-09-09T09:12:29;97418.31;;;19.26
72054;BMP280;59918;51.280;7.950;2022-09-09T09:14:55;97412.56;;;19.29
72054;BMP280;59918;51.280;7.950;2022-09-09T09:17:23;97407.31;;;19.87
72054;BMP280;59918;51.280;7.950;2022-09-09T09:19:50;97413.81;;;20.27
72054;BMP280;59918;51.280;7.950;2022-09-09T09:22:18;97420.28;;;20.35
72054;BMP280;59918;51.280;7.950;2022-09-09T09:24:53;97403.06;;;20.90
72054;BMP280;59918;51.280;7.950;2022-09-09T09:30:12;97406.03;;;21.71
72054;BMP280;59918;51.280;7.950;2022-09-09T09:32:39;97403.25;;;21.99
72054;BMP280;59918;51.280;7.950;2022-09-09T09:35:11;97405.97;;;22.44
72054;BMP280;59918;51.280;7.950;2022-09-09T09:37:37;97382.66;;;22.43
72054;BMP280;59918;51.280;7.950;2022-09-09T09:40:14;97394.63;;;21.81
72054;BMP280;59918;51.280;7.950;2022-09-09T09:42:54;97391.47;;;21.65
72054;BMP280;59918;51.280;7.950;2022-09-09T09:48:00;97383.56;;;21.06
72054;BMP280;59918;51.280;7.950;2022-09-09T09:50:26;97401.72;;;20.69
72054;BMP280;59918;51.280;7.950;2022-09-09T09:52:59;97406.75;;;20.28
72054;BMP280;59918;51.280;7.950;2022-09-09T09:55:25;97401.97;;;20.07
72054;BMP280;59918;51.280;7.950;2022-09-09T09:57:51;97412.53;;;20.58
72054;BMP280;59918;51.280;7.950;2022-09-09T10:00:19;97402.22;;;20.71
72054;BMP280;59918;51.280;7.950;2022-09-09T10:02:49;97407.19;;;20.40
72054;BMP280;59918;51.280;7.950;2022-09-09T10:05:16;97417.94;;;21.59
72054;BMP280;59918;51.280;7.950;2022-09-09T10:07:41;97420.81;;;22.49
72054;BMP280;59918;51.280;7.950;2022-09-09T10:10:15;97402.88;;;22.87
72054;BMP280;59918;51.280;7.950;2022-09-09T10:13:01;97399.69;;;24.35
72054;BMP280;59918;51.280;7.950;2022-09-09T10:15:42;97400.59;;;25.21
72054;BMP280;59918;51.280;7.950;2022-09-09T10:18:30;97406.19;;;26.08
72054;BMP280;59918;51.280;7.950;2022-09-09T10:21:19;97382.03;;;26.85
72054;BMP280;59918;51.280;7.950;2022-09-09T10:26:45;97375.97;;;28.11
72054;BMP280;59918;51.280;7.950;2022-09-09T10:32:06;97370.91;;;28.06
72054;BMP280;59918;51.280;7.950;2022-09-09T10:43:03;97363.88;;;28.42
72054;BMP280;59918;51.280;7.950;2022-09-09T10:45:47;97366.50;;;28.74
72054;BMP280;59918;51.280;7.950;2022-09-09T10:56:13;97357.25;;;25.10
72054;BMP280;59918;51.280;7.950;2022-09-09T10:58:42;97366.88;;;24.55
72054;BMP280;59918;51.280;7.950;2022-09-09T11:01:17;97358.97;;;23.81
72054;BMP280;59918;51.280;7.950;2022-09-09T11:03:45;97351.53;;;24.78
72054;BMP280;59918;51.280;7.950;2022-09-09T11:06:17;97341.22;;;25.54
72054;BMP280;59918;51.280;7.950;2022-09-09T11:08:45;97342.41;;;25.23
72054;BMP280;59918;51.280;7.950;2022-09-09T11:11:27;97349.78;;;25.04
72054;BMP280;59918;51.280;7.950;2022-09-09T11:14:03;97354.81;;;25.22
72054;BMP280;59918;51.280;7.950;2022-09-09T11:16:50;97338.09;;;25.27
72054;BMP280;59918;51.280;7.950;2022-09-09T11:21:59;97373.41;;;24.14
72054;BMP280;59918;51.280;7.950;2022-09-09T11:26:54;97362.75;;;23.00
72054;BMP280;59918;51.280;7.950;2022-09-09T11:29:25;97381.31;;;23.30
72054;BMP280;59918;51.280;7.950;2022-09-09T11:38:07;97370.63;;;23.27
72054;BMP280;59918;51.280;7.950;2022-09-09T11:40:34;97366.94;;;23.01
72054;BMP280;59918;51.280;7.950;2022-09-09T11:43:12;97365.28;;;23.05
72054;BMP280;59918;51.280;7.950;2022-09-09T11:45:42;97363.84;;;23.74
72054;BMP280;59918;51.280;7.950;2022-09-09T11:48:29;97362.06;;;23.83
72054;BMP280;59918;51.280;7.950;2022-09-09T11:53:29;97348.50;;;25.40
72054;BMP280;59918;51.280;7.950;2022-09-09T11:56:06;97348.50;;;25.31
72054;BMP280;59918;51.280;7.950;2022-09-09T11:58:40;97356.28;;;24.68
72054;BMP280;59918;51.280;7.950;2022-09-09T12:01:35;97358.84;;;24.08
72054;BMP280;59918;51.280;7.950;2022-09-09T12:06:54;97342.31;;;26.11
72054;BMP280;59918;51.280;7.950;2022-09-09T12:09:54;97338.41;;;28.38
72054;BMP280;59918;51.280;7.950;2022-09-09T12:17:49;97333.69;;;28.11
72054;BMP280;59918;51.280;7.950;2022-09-09T12:28:21;97341.59;;;25.05
72054;BMP280;59918;51.280;7.950;2022-09-09T12:33:40;97327.50;;;27.26
72054;BMP280;59918;51.280;7.950;2022-09-09T12:36:10;97314.50;;;28.46
72054;BMP280;59918;51.280;7.950;2022-09-09T12:38:39;97307.88;;;29.20
72054;BMP280;59918;51.280;7.950;2022-09-09T12:41:05;97318.75;;;27.95
72054;BMP280;59918;51.280;7.950;2022-09-09T12:43:31;97313.94;;;26.25
72054;BMP280;59918;51.280;7.950;2022-09-09T12:48:37;97313.28;;;27.39
72054;BMP280;59918;51.280;7.950;2022-09-09T12:51:07;97313.94;;;28.29
72054;BMP280;59918;51.280;7.950;2022-09-09T12:53:41;97298.69;;;31.45
72054;BMP280;59918;51.280;7.950;2022-09-09T12:56:08;97286.53;;;32.63
72054;BMP280;59918;51.280;7.950;2022-09-09T12:58:45;97281.56;;;33.10
72054;BMP280;59918;51.280;7.950;2022-09-09T13:01:20;97275.88;;;33.66
72054;BMP280;59918;51.280;7.950;2022-09-09T13:03:46;97277.97;;;32.99
72054;BMP280;59918;51.280;7.950;2022-09-09T13:06:13;97302.25;;;31.03
72054;BMP280;59918;51.280;7.950;2022-09-09T13:08:43;97300.59;;;28.69
72054;BMP280;59918;51.280;7.950;2022-09-09T13:11:13;97301.19;;;27.10
72054;BMP280;59918;51.280;7.950;2022-09-09T13:13:41;97305.78;;;25.93
72054;BMP280;59918;51.280;7.950;2022-09-09T13:16:19;97299.91;;;25.71
72054;BMP280;59918;51.280;7.950;2022-09-09T13:18:45;97295.53;;;26.08
72054;BMP280;59918;51.280;7.950;2022-09-09T13:21:10;97295.69;;;26.66
72054;BMP280;59918;51.280;7.950;2022-09-09T13:23:37;97271.34;;;28.54
72054;BMP280;59918;51.280;7.950;2022-09-09T13:26:20;97270.50;;;29.87
72054;BMP280;59918;51.280;7.950;2022-09-09T13:28:46;97258.94;;;30.99
72054;BMP280;59918;51.280;7.950;2022-09-09T13:33:47;97254.97;;;33.71
72054;BMP280;59918;51.280;7.950;2022-09-09T13:36:13;97246.63;;;32.41
72054;BMP280;59918;51.280;7.950;2022-09-09T13:38:59;97260.72;;;30.18
72054;BMP280;59918;51.280;7.950;2022-09-09T13:41:33;97275.97;;;28.01
72054;BMP280;59918;51.280;7.950;2022-09-09T13:44:02;97268.69;;;26.97
72054;BMP280;59918;51.280;7.950;2022-09-09T13:46:34;97263.63;;;28.37
72054;BMP280;59918;51.280;7.950;2022-09-09T13:54:00;97259.94;;;26.85
72054;BMP280;59918;51.280;7.950;2022-09-09T13:56:26;97267.00;;;27.21
72054;BMP280;59918;51.280;7.950;2022-09-09T13:58:51;97268.63;;;27.06
72054;BMP280;59918;51.280;7.950;2022-09-09T14:01:19;97279.91;;;25.87
72054;BMP280;59918;51.280;7.950;2022-09-09T14:03:44;97278.72;;;24.87
72054;BMP280;59918;51.280;7.950;2022-09-09T14:06:10;97291.41;;;24.17
72054;BMP280;59918;51.280;7.950;2022-09-09T14:08:38;97287.25;;;23.72
72054;BMP280;59918;51.280;7.950;2022-09-09T14:11:04;97274.50;;;23.44
72054;BMP280;59918;51.280;7.950;2022-09-09T14:13:29;97274.56;;;23.17
72054;BMP280;59918;51.280;7.950;2022-09-09T14:15:54;97282.00;;;22.89
72054;BMP280;59918;51.280;7.950;2022-09-09T14:18:19;97279.84;;;22.64
72054;BMP280;59918;51.280;7.950;2022-09-09T14:20:45;97269.63;;;22.49
72054;BMP280;59918;51.280;7.950;2022-09-09T14:23:11;97277.22;;;22.64
72054;BMP280;59918;51.280;7.950;2022-09-09T14:25:39;97262.56;;;22.90
72054;BMP280;59918;51.280;7.950;2022-09-09T14:28:08;97277.50;;;22.63
72054;BMP280;59918;51.280;7.950;2022-09-09T14:30:34;97275.06;;;22.39
72054;BMP280;59918;51.280;7.950;2022-09-09T14:32:59;97274.69;;;22.72
72054;BMP280;59918;51.280;7.950;2022-09-09T14:35:26;97279.78;;;23.31
72054;BMP280;59918;51.280;7.950;2022-09-09T14:37:51;97256.97;;;25.37
72054;BMP280;59918;51.280;7.950;2022-09-09T14:40:17;97256.06;;;25.25
72054;BMP280;59918;51.280;7.950;2022-09-09T14:42:42;97265.00;;;24.52
72054;BMP280;59918;51.280;7.950;2022-09-09T14:45:07;97268.75;;;23.77
72054;BMP280;59918;51.280;7.950;2022-09-09T14:47:33;97272.22;;;23.16
72054;BMP280;59918;51.280;7.950;2022-09-09T14:49:58;97278.09;;;22.60
72054;BMP280;59918;51.280;7.950;2022-09-09T14:52:23;97287.06;;;22.14
72054;BMP280;59918;51.280;7.950;2022-09-09T14:54:48;97316.91;;;21.63
72054;BMP280;59918;51.280;7.950;2022-09-09T14:57:14;97323.59;;;20.45
72054;BMP280;59918;51.280;7.950;2022-09-09T14:59:39;97331.66;;;19.49
72054;BMP280;59918;51.280;7.950;2022-09-09T15:02:05;97321.44;;;19.09
72054;BMP280;59918;51.280;7.950;2022-09-09T15:04:30;97325.31;;;19.17
72054;BMP280;59918;51.280;7.950;2022-09-09T15:06:56;97326.41;;;20.25
72054;BMP280;59918;51.280;7.950;2022-09-09T15:09:21;97308.50;;;22.16
72054;BMP280;59918;51.280;7.950;2022-09-09T15:11:46;97292.63;;;24.88
72054;BMP280;59918;51.280;7.950;2022-09-09T15:14:11;97286.38;;;25.14
72054;BMP280;59918;51.280;7.950;2022-09-09T15:16:38;97279.25;;;25.06
72054;BMP280;59918;51.280;7.950;2022-09-09T15:19:04;97289.78;;;24.29
72054;BMP280;59918;51.280;7.950;2022-09-09T15:21:32;97281.94;;;25.39
72054;BMP280;59918;51.280;7.950;2022-09-09T15:23:58;97275.09;;;26.59
72054;BMP280;59918;51.280;7.950;2022-09-09T15:26:23;97273.97;;;27.46
72054;BMP280;59918;51.280;7.950;2022-09-09T15:28:49;97278.25;;;27.10
72054;BMP280;59918;51.280;7.950;2022-09-09T15:31:17;97289.84;;;25.65
72054;BMP280;59918;51.280;7.950;2022-09-09T15:33:47;97294.59;;;24.14
72054;BMP280;59918;51.280;7.950;2022-09-09T15:38:40;97298.16;;;22.37
72054;BMP280;59918;51.280;7.950;2022-09-09T15:41:07;97299.56;;;21.85
72054;BMP280;59918;51.280;7.950;2022-09-09T15:43:32;97299.66;;;21.44
72054;BMP280;59918;51.280;7.950;2022-09-09T15:46:05;97298.28;;;21.10
72054;BMP280;59918;51.280;7.950;2022-09-09T15:48:36;97294.28;;;20.76
72054;BMP280;59918;51.280;7.950;2022-09-09T15:51:02;97304.69;;;20.52
72054;BMP280;59918;51.280;7.950;2022-09-09T15:53:28;97305.44;;;20.30
72054;BMP280;59918;51.280;7.950;2022-09-09T15:55:55;97308.81;;;20.07
72054;BMP280;59918;51.280;7.950;2022-09-09T15:58:20;97301.44;;;19.86
72054;BMP280;59918;51.280;7.950;2022-09-09T16:00:45;97300.72;;;19.71
72054;BMP280;59918;51.280;7.950;2022-09-09T16:03:11;97305.50;;;19.59
72054;BMP280;59918;51.280;7.950;2022-09-09T16:05:36;97310.53;;;19.50
72054;BMP280;59918;51.280;7.950;2022-09-09T16:08:01;97303.53;;;19.41
72054;BMP280;59918;51.280;7.950;2022-09-09T16:10:26;97298.91;;;19.33
72054;BMP280;59918;51.280;7.950;2022-09-09T16:12:51;97313.78;;;19.28
72054;BMP280;59918;51.280;7.950;2022-09-09T16:15:17;97324.88;;;19.05
72054;BMP280;59918;51.280;7.950;2022-09-09T16:17:42;97326.00;;;18.74
72054;BMP280;59918;51.280;7.950;2022-09-09T16:20:07;97339.66;;;18.27
72054;BMP280;59918;51.280;7.950;2022-09-09T16:22:33;97345.84;;;17.77
72054;BMP280;59918;51.280;7.950;2022-09-09T16:24:58;97351.78;;;17.48